Time;durP1;ratioP1;P1;durP2;ratioP2;P2;SDS_P1;SDS_P2;PMS_P1;PMS_P2;Temp;Humidity;BMP_temperature;BMP_pressure;BME280_temperature;BME280_humidity;BME280_pressure;Samples;Min_cycle;Max_cycle;Signal;HPM_P1;HPM_P2
2022/07/03 00:00:46;;;;;;;0.10;0.10;;;;;;;;;;5019707;28;20267;-69
2022/07/03 00:03:12;;;;;;;0.00;0.00;;;;;;;;;;5035284;28;20205;-70
2022/07/03 00:05:38;;;;;;;0.00;0.00;;;;;;;;;;5018854;28;20440;-69
2022/07/03 00:08:05;;;;;;;0.05;0.05;;;;;;;;;;5035452;28;20208;-68
2022/07/03 00:10:33;;;;;;;0.00;0.00;;;;;;;;;;5017773;28;20573;-69
2022/07/03 00:12:59;;;;;;;0.00;0.00;;;;;;;;;;5036196;28;20228;-68
2022/07/03 00:15:25;;;;;;;0.10;0.10;;;;;;;;;;5017495;28;20295;-68
2022/07/03 00:17:52;;;;;;;0.00;0.00;;;;;;;;;;5035714;28;20401;-69
2022/07/03 00:20:18;;;;;;;0.00;0.00;;;;;;;;;;5016208;28;20239;-69
2022/07/03 00:22:45;;;;;;;0.00;0.00;;;;;;;;;;5038126;28;20193;-70
2022/07/03 00:25:12;;;;;;;0.00;0.00;;;;;;;;;;5015038;28;20206;-69
2022/07/03 00:27:40;;;;;;;0.10;0.10;;;;;;;;;;5038586;28;20269;-69
2022/07/03 00:30:10;;;;;;;0.00;0.00;;;;;;;;;;5014366;28;20289;-69
2022/07/03 00:32:39;;;;;;;0.08;0.08;;;;;;;;;;5038775;28;20221;-70
2022/07/03 00:35:06;;;;;;;0.00;0.00;;;;;;;;;;5019447;28;20208;-69
2022/07/03 00:37:32;;;;;;;0.00;0.00;;;;;;;;;;5039200;28;20287;-70
2022/07/03 00:39:59;;;;;;;0.00;0.00;;;;;;;;;;5023923;28;20209;-68
2022/07/03 00:42:27;;;;;;;0.00;0.00;;;;;;;;;;5029057;28;20298;-68
2022/07/03 00:44:56;;;;;;;0.00;0.00;;;;;;;;;;5023980;28;20407;-71
2022/07/03 00:47:24;;;;;;;0.00;0.00;;;;;;;;;;5029042;28;20481;-69
2022/07/03 00:49:51;;;;;;;0.00;0.00;;;;;;;;;;5023876;28;20285;-70
2022/07/03 00:52:19;;;;;;;0.00;0.00;;;;;;;;;;5028757;28;20480;-70
2022/07/03 00:54:46;;;;;;;0.00;0.00;;;;;;;;;;5024012;28;20231;-68
2022/07/03 00:57:15;;;;;;;0.00;0.00;;;;;;;;;;5028573;28;20247;-68
2022/07/03 00:59:43;;;;;;;0.00;0.00;;;;;;;;;;5023538;28;20244;-69
2022/07/03 01:02:16;;;;;;;0.03;0.03;;;;;;;;;;5028654;28;20251;-69
2022/07/03 01:04:46;;;;;;;0.00;0.00;;;;;;;;;;5023670;28;20216;-68
2022/07/03 01:07:18;;;;;;;0.00;0.00;;;;;;;;;;5028317;28;20246;-68
2022/07/03 01:09:51;;;;;;;0.05;0.05;;;;;;;;;;5023586;28;20215;-69
2022/07/03 01:12:22;;;;;;;0.00;0.00;;;;;;;;;;5028622;28;20241;-70
2022/07/03 01:14:54;;;;;;;0.00;0.00;;;;;;;;;;5023291;28;20206;-70
2022/07/03 01:17:27;;;;;;;0.00;0.00;;;;;;;;;;5028467;28;20244;-69
2022/07/03 01:19:57;;;;;;;0.00;0.00;;;;;;;;;;5023408;28;20349;-69
2022/07/03 01:22:28;;;;;;;0.00;0.00;;;;;;;;;;5028474;28;20307;-69
2022/07/03 01:25:12;;;;;;;0.00;0.00;;;;;;;;;;5023624;28;20206;-69
2022/07/03 01:27:46;;;;;;;0.00;0.00;;;;;;;;;;5020309;28;20234;-68
2022/07/03 01:30:12;;;;;;;0.10;0.10;;;;;;;;;;5013955;28;20279;-68
2022/07/03 01:32:40;;;;;;;0.00;0.00;;;;;;;;;;5037438;28;20286;-69
2022/07/03 01:35:07;;;;;;;0.00;0.00;;;;;;;;;;5013493;28;20281;-68
2022/07/03 01:37:35;;;;;;;0.05;0.05;;;;;;;;;;5038027;28;20207;-68
2022/07/03 01:40:03;;;;;;;0.00;0.00;;;;;;;;;;5023271;28;20214;-69
2022/07/03 01:42:29;;;;;;;0.00;0.00;;;;;;;;;;5011535;28;20317;-69
2022/07/03 01:44:59;;;;;;;0.00;0.00;;;;;;;;;;5023288;28;20391;-69
2022/07/03 01:47:25;;;;;;;0.10;0.10;;;;;;;;;;5027939;28;20265;-68
2022/07/03 01:49:52;;;;;;;0.00;0.00;;;;;;;;;;5022943;28;20219;-69
2022/07/03 01:52:20;;;;;;;0.00;0.00;;;;;;;;;;5028263;28;20256;-69
2022/07/03 01:54:48;;;;;;;0.00;0.00;;;;;;;;;;5022641;28;20241;-69
2022/07/03 01:57:14;;;;;;;0.00;0.00;;;;;;;;;;5027947;28;20314;-69
2022/07/03 01:59:42;;;;;;;0.00;0.00;;;;;;;;;;5022744;28;20208;-70
2022/07/03 02:02:14;;;;;;;0.00;0.00;;;;;;;;;;5027901;28;20285;-68
2022/07/03 02:04:45;;;;;;;0.03;0.03;;;;;;;;;;5022789;28;20279;-68
2022/07/03 02:07:16;;;;;;;0.00;0.00;;;;;;;;;;5027671;28;20246;-69
2022/07/03 02:09:45;;;;;;;0.00;0.00;;;;;;;;;;5022981;28;20235;-68
2022/07/03 02:12:12;;;;;;;0.00;0.00;;;;;;;;;;5027678;28;20445;-68
2022/07/03 02:14:40;;;;;;;0.10;0.10;;;;;;;;;;5022674;28;20424;-69
2022/07/03 02:17:15;;;;;;;0.00;0.00;;;;;;;;;;5027333;28;20245;-68
2022/07/03 02:19:45;;;;;;;0.00;0.00;;;;;;;;;;5022344;28;20248;-68
2022/07/03 02:22:12;;;;;;;0.08;0.08;;;;;;;;;;5027496;28;20240;-68
2022/07/03 02:24:41;;;;;;;0.00;0.00;;;;;;;;;;5022616;28;20208;-69
2022/07/03 02:27:10;;;;;;;0.00;0.00;;;;;;;;;;5027455;28;20250;-69
2022/07/03 02:29:41;;;;;;;0.10;0.10;;;;;;;;;;5022314;28;20207;-69
2022/07/03 02:32:11;;;;;;;0.00;0.00;;;;;;;;;;5027418;28;20258;-68
2022/07/03 02:34:39;;;;;;;0.08;0.08;;;;;;;;;;5022663;28;20207;-69
2022/07/03 02:37:12;;;;;;;0.00;0.00;;;;;;;;;;5027271;28;20495;-69
2022/07/03 02:39:43;;;;;;;0.00;0.00;;;;;;;;;;5022500;28;20212;-69
2022/07/03 02:42:15;;;;;;;0.00;0.00;;;;;;;;;;5031481;28;20322;-69
2022/07/03 02:44:45;;;;;;;0.00;0.00;;;;;;;;;;5026031;28;20275;-69
2022/07/03 02:47:14;;;;;;;0.00;0.00;;;;;;;;;;5031323;28;20247;-70
2022/07/03 02:49:51;;;;;;;0.00;0.00;;;;;;;;;;5026529;28;20344;-68
2022/07/03 02:52:23;;;;;;;0.00;0.00;;;;;;;;;;5031083;28;20500;-69
2022/07/03 02:54:52;;;;;;;0.00;0.00;;;;;;;;;;5026434;28;20247;-70
2022/07/03 02:57:19;;;;;;;0.00;0.00;;;;;;;;;;5030829;28;20479;-69
2022/07/03 02:59:48;;;;;;;0.05;0.05;;;;;;;;;;5026078;28;20205;-69
2022/07/03 03:02:18;;;;;;;0.00;0.00;;;;;;;;;;5031032;28;20240;-68
2022/07/03 03:04:46;;;;;;;0.00;0.00;;;;;;;;;;5026104;28;20269;-70
2022/07/03 03:07:15;;;;;;;0.00;0.00;;;;;;;;;;5031291;28;20276;-68
2022/07/03 03:09:43;;;;;;;0.00;0.00;;;;;;;;;;5025994;28;20220;-68
2022/07/03 03:12:10;;;;;;;0.10;0.10;;;;;;;;;;5030676;28;20263;-69
2022/07/03 03:14:39;;;;;;;0.10;0.10;;;;;;;;;;5025673;28;20277;-68
2022/07/03 03:17:06;;;;;;;0.10;0.10;;;;;;;;;;5030476;28;20451;-69
2022/07/03 03:19:37;;;;;;;0.00;0.00;;;;;;;;;;5025544;28;20271;-70
2022/07/03 03:22:07;;;;;;;0.00;0.00;;;;;;;;;;5030403;28;20250;-69
2022/07/03 03:24:34;;;;;;;0.00;0.00;;;;;;;;;;5025833;28;20213;-69
2022/07/03 03:27:02;;;;;;;0.05;0.05;;;;;;;;;;5029832;28;20294;-68
2022/07/03 03:29:28;;;;;;;0.00;0.00;;;;;;;;;;5026036;28;20210;-69
2022/07/03 03:31:55;;;;;;;0.05;0.05;;;;;;;;;;5028917;28;20491;-69
2022/07/03 03:34:22;;;;;;;0.00;0.00;;;;;;;;;;5026453;28;20296;-68
2022/07/03 03:36:48;;;;;;;0.00;0.00;;;;;;;;;;5028378;28;20456;-70
2022/07/03 03:39:15;;;;;;;0.00;0.00;;;;;;;;;;5027513;28;20387;-69
2022/07/03 03:41:42;;;;;;;0.00;0.00;;;;;;;;;;5027150;28;20455;-69
2022/07/03 03:44:09;;;;;;;0.08;0.08;;;;;;;;;;5028077;28;20235;-69
2022/07/03 03:46:36;;;;;;;0.00;0.00;;;;;;;;;;5026345;28;20247;-69
2022/07/03 03:49:02;;;;;;;0.00;0.00;;;;;;;;;;5028564;28;20206;-68
2022/07/03 03:51:28;;;;;;;0.05;0.05;;;;;;;;;;5025384;28;20447;-70
2022/07/03 03:53:55;;;;;;;0.00;0.00;;;;;;;;;;5029629;28;20237;-69
2022/07/03 03:56:21;;;;;;;0.00;0.00;;;;;;;;;;5024324;28;20302;-68
2022/07/03 03:58:47;;;;;;;0.00;0.00;;;;;;;;;;5030336;28;20205;-68
2022/07/03 04:01:15;;;;;;;0.00;0.00;;;;;;;;;;5022983;28;20248;-70
2022/07/03 04:03:42;;;;;;;0.00;0.00;;;;;;;;;;5031276;28;20203;-69
2022/07/03 04:06:09;;;;;;;0.00;0.00;;;;;;;;;;5022219;28;20306;-69
2022/07/03 04:08:35;;;;;;;0.00;0.00;;;;;;;;;;5031940;28;20286;-68
2022/07/03 04:11:02;;;;;;;0.00;0.00;;;;;;;;;;5021912;28;20259;-69
2022/07/03 04:13:28;;;;;;;0.00;0.00;;;;;;;;;;5032827;28;20373;-69
2022/07/03 04:15:55;;;;;;;0.10;0.10;;;;;;;;;;5020872;28;20456;-69
2022/07/03 04:18:23;;;;;;;0.00;0.00;;;;;;;;;;5033622;28;20261;-68
2022/07/03 04:20:49;;;;;;;0.10;0.10;;;;;;;;;;5020036;28;20310;-70
2022/07/03 04:23:16;;;;;;;0.00;0.00;;;;;;;;;;5034020;28;20205;-69
2022/07/03 04:25:42;;;;;;;0.00;0.00;;;;;;;;;;5019235;28;20265;-69
2022/07/03 04:28:10;;;;;;;0.00;0.00;;;;;;;;;;5034833;28;20295;-69
2022/07/03 04:30:37;;;;;;;0.00;0.00;;;;;;;;;;5018518;28;20429;-68
2022/07/03 04:33:03;;;;;;;0.03;0.03;;;;;;;;;;5035818;28;20262;-69
2022/07/03 04:35:31;;;;;;;0.00;0.00;;;;;;;;;;5017380;28;20243;-68
2022/07/03 04:37:57;;;;;;;0.00;0.00;;;;;;;;;;5036372;28;20424;-70
2022/07/03 04:40:23;;;;;;;0.00;0.00;;;;;;;;;;5016541;28;20207;-69
2022/07/03 04:42:50;;;;;;;0.10;0.10;;;;;;;;;;5036991;28;20191;-69
2022/07/03 04:45:16;;;;;;;0.00;0.00;;;;;;;;;;5015619;28;20275;-68
2022/07/03 04:47:44;;;;;;;0.00;0.00;;;;;;;;;;5037783;28;20206;-67
2022/07/03 04:50:10;;;;;;;0.00;0.00;;;;;;;;;;5014645;28;20278;-69
2022/07/03 04:52:38;;;;;;;0.00;0.00;;;;;;;;;;5038620;28;20196;-70
2022/07/03 04:55:06;;;;;;;0.00;0.00;;;;;;;;;;5023962;28;20210;-69
2022/07/03 04:57:33;;;;;;;0.00;0.00;;;;;;;;;;5012510;28;20270;-70
2022/07/03 04:59:59;;;;;;;0.10;0.10;;;;;;;;;;5024057;28;20214;-68
2022/07/03 05:02:25;;;;;;;0.00;0.00;;;;;;;;;;5028621;28;20240;-68
2022/07/03 05:04:52;;;;;;;0.03;0.03;;;;;;;;;;5023412;28;20208;-69
2022/07/03 05:07:18;;;;;;;0.00;0.00;;;;;;;;;;5028681;28;20260;-70
2022/07/03 05:09:46;;;;;;;0.00;0.00;;;;;;;;;;5023698;28;20279;-68
2022/07/03 05:12:12;;;;;;;0.00;0.00;;;;;;;;;;5028669;28;20241;-69
2022/07/03 05:14:38;;;;;;;0.00;0.00;;;;;;;;;;5023463;28;20306;-69
2022/07/03 05:17:05;;;;;;;0.10;0.10;;;;;;;;;;5028309;28;20336;-69
2022/07/03 05:19:31;;;;;;;0.00;0.00;;;;;;;;;;5023426;28;20216;-68
2022/07/03 05:21:57;;;;;;;0.00;0.00;;;;;;;;;;5027461;28;20374;-69
2022/07/03 05:24:24;;;;;;;0.00;0.00;;;;;;;;;;5024361;28;20333;-68
2022/07/03 05:26:52;;;;;;;0.00;0.00;;;;;;;;;;5026294;28;20291;-70
2022/07/03 05:29:18;;;;;;;0.00;0.00;;;;;;;;;;5025107;28;20308;-69
2022/07/03 05:31:45;;;;;;;0.08;0.08;;;;;;;;;;5025723;28;20259;-69
2022/07/03 05:34:11;;;;;;;0.00;0.00;;;;;;;;;;5025700;28;20239;-69
2022/07/03 05:36:37;;;;;;;0.00;0.00;;;;;;;;;;5024835;28;20266;-71
2022/07/03 05:41:48;;;;;;;0.00;0.00;;;;;;;;;;5026048;28;20251;-69
2022/07/03 05:44:16;;;;;;;0.00;0.00;;;;;;;;;;5025103;28;20273;-69
2022/07/03 05:46:42;;;;;;;0.00;0.00;;;;;;;;;;5025013;28;20246;-69
2022/07/03 05:49:08;;;;;;;0.00;0.00;;;;;;;;;;5025665;28;20430;-70
2022/07/03 05:51:35;;;;;;;0.00;0.00;;;;;;;;;;5023865;28;20255;-69
2022/07/03 05:54:01;;;;;;;0.00;0.00;;;;;;;;;;5026652;28;20240;-68
2022/07/03 05:56:27;;;;;;;0.00;0.00;;;;;;;;;;5023088;28;20300;-68
2022/07/03 05:58:54;;;;;;;0.00;0.00;;;;;;;;;;5027609;28;20216;-69
2022/07/03 06:01:23;;;;;;;0.08;0.08;;;;;;;;;;5021959;28;20250;-68
2022/07/03 06:03:49;;;;;;;0.00;0.00;;;;;;;;;;5028344;28;20196;-69
2022/07/03 06:06:15;;;;;;;0.10;0.10;;;;;;;;;;5021409;28;20245;-69
2022/07/03 06:08:42;;;;;;;0.00;0.00;;;;;;;;;;5028889;28;20285;-69
2022/07/03 06:11:08;;;;;;;0.00;0.00;;;;;;;;;;5020389;28;20307;-69
2022/07/03 06:13:35;;;;;;;0.10;0.10;;;;;;;;;;5029712;28;20230;-70
2022/07/03 06:16:01;;;;;;;0.00;0.00;;;;;;;;;;5018626;28;20569;-68
2022/07/03 06:18:29;;;;;;;0.10;0.10;;;;;;;;;;5030671;28;20282;-68
2022/07/03 06:20:55;;;;;;;0.00;0.00;;;;;;;;;;5019029;28;20314;-67
2022/07/03 06:23:21;;;;;;;0.03;0.03;;;;;;;;;;5031307;28;20295;-71
2022/07/03 06:25:48;;;;;;;0.00;0.00;;;;;;;;;;5017540;28;20359;-69
2022/07/03 06:28:14;;;;;;;0.10;0.10;;;;;;;;;;5032240;28;20206;-69
2022/07/03 06:30:40;;;;;;;0.00;0.00;;;;;;;;;;5017222;28;20240;-69
2022/07/03 06:33:07;;;;;;;0.00;0.00;;;;;;;;;;5033064;28;20274;-69
2022/07/03 06:35:35;;;;;;;0.00;0.00;;;;;;;;;;5015707;28;20242;-68
2022/07/03 06:38:01;;;;;;;0.00;0.00;;;;;;;;;;5033616;28;20211;-68
2022/07/03 06:40:28;;;;;;;0.10;0.10;;;;;;;;;;5015247;28;20452;-69
2022/07/03 06:42:54;;;;;;;0.00;0.00;;;;;;;;;;5034171;28;20220;-70
2022/07/03 06:45:20;;;;;;;0.00;0.00;;;;;;;;;;5014202;28;20285;-70
2022/07/03 06:47:47;;;;;;;0.00;0.00;;;;;;;;;;5035409;28;20409;-69
2022/07/03 06:50:13;;;;;;;0.00;0.00;;;;;;;;;;5012680;28;20215;-69
2022/07/03 06:52:41;;;;;;;0.00;0.00;;;;;;;;;;5037112;28;20262;-68
2022/07/03 06:55:08;;;;;;;0.00;0.00;;;;;;;;;;5012491;28;20302;-69
2022/07/03 06:57:34;;;;;;;0.00;0.00;;;;;;;;;;5037267;28;20510;-71
2022/07/03 07:00:00;;;;;;;0.00;0.00;;;;;;;;;;5022973;28;20408;-68
2022/07/03 07:02:27;;;;;;;0.20;0.20;;;;;;;;;;5027240;28;20250;-67
2022/07/03 07:04:53;;;;;;;0.00;0.00;;;;;;;;;;5022409;28;20274;-72
2022/07/03 07:07:20;;;;;;;0.00;0.00;;;;;;;;;;5027529;28;20302;-72
2022/07/03 07:09:48;;;;;;;0.00;0.00;;;;;;;;;;5022539;28;20235;-73
2022/07/03 07:12:15;;;;;;;0.00;0.00;;;;;;;;;;5027785;28;20311;-72
2022/07/03 07:14:41;;;;;;;0.00;0.00;;;;;;;;;;5024059;28;20256;-73
2022/07/03 07:17:08;;;;;;;0.00;0.00;;;;;;;;;;5028089;28;20308;-73
2022/07/03 07:19:34;;;;;;;0.00;0.00;;;;;;;;;;5023042;28;20275;-72
2022/07/03 07:22:01;;;;;;;0.00;0.00;;;;;;;;;;5027469;28;20240;-73
2022/07/03 07:24:28;;;;;;;0.00;0.00;;;;;;;;;;5023648;28;20440;-72
2022/07/03 07:26:55;;;;;;;0.00;0.00;;;;;;;;;;5027829;28;20241;-70
2022/07/03 07:29:22;;;;;;;0.00;0.00;;;;;;;;;;5028035;28;20503;-69
2022/07/03 07:31:48;;;;;;;0.00;0.00;;;;;;;;;;5028541;28;20578;-69
2022/07/03 07:34:14;;;;;;;0.00;0.00;;;;;;;;;;5027724;28;20432;-67
2022/07/03 07:36:44;;;;;;;0.00;0.00;;;;;;;;;;5027108;28;20316;-70
2022/07/03 07:39:10;;;;;;;0.00;0.00;;;;;;;;;;5027772;28;20198;-69
2022/07/03 07:41:37;;;;;;;0.00;0.00;;;;;;;;;;5026890;28;20307;-70
2022/07/03 07:44:05;;;;;;;0.00;0.00;;;;;;;;;;5028496;28;20256;-70
2022/07/03 07:46:32;;;;;;;0.00;0.00;;;;;;;;;;5025965;28;20438;-69
2022/07/03 07:48:58;;;;;;;0.00;0.00;;;;;;;;;;5029092;28;20209;-69
2022/07/03 07:51:25;;;;;;;0.00;0.00;;;;;;;;;;5024902;28;20268;-71
2022/07/03 07:53:52;;;;;;;0.00;0.00;;;;;;;;;;5030345;28;20340;-69
2022/07/03 07:56:18;;;;;;;0.00;0.00;;;;;;;;;;5025170;28;20396;-69
2022/07/03 07:58:45;;;;;;;0.00;0.00;;;;;;;;;;5033272;28;20240;-70
2022/07/03 08:06:40;;;;;;;0.00;0.00;;;;;;;;;;5028934;28;20323;-68
2022/07/03 08:09:07;;;;;;;0.00;0.00;;;;;;;;;;5028979;28;20272;-68
2022/07/03 08:11:33;;;;;;;0.00;0.00;;;;;;;;;;5027186;28;20312;-69
2022/07/03 08:14:00;;;;;;;0.00;0.00;;;;;;;;;;5030063;28;20229;-70
2022/07/03 08:16:27;;;;;;;0.00;0.00;;;;;;;;;;5027123;28;20240;-74
2022/07/03 08:18:54;;;;;;;0.00;0.00;;;;;;;;;;5029680;28;20255;-74
2022/07/03 08:21:20;;;;;;;0.00;0.00;;;;;;;;;;5024019;28;20248;-71
2022/07/03 08:23:46;;;;;;;0.00;0.00;;;;;;;;;;5030246;28;20404;-74
2022/07/03 08:26:13;;;;;;;0.00;0.00;;;;;;;;;;5022923;28;20252;-74
2022/07/03 08:28:39;;;;;;;0.00;0.00;;;;;;;;;;5031293;28;20278;-75
2022/07/03 08:31:06;;;;;;;0.03;0.03;;;;;;;;;;5022029;28;20316;-74
2022/07/03 08:33:34;;;;;;;0.00;0.00;;;;;;;;;;5031899;28;20220;-75
2022/07/03 08:36:00;;;;;;;0.00;0.00;;;;;;;;;;5021428;28;20266;-74
2022/07/03 08:38:33;;;;;;;0.00;0.00;;;;;;;;;;5031638;28;20277;-73
2022/07/03 08:41:00;;;;;;;0.00;0.00;;;;;;;;;;5021311;28;20498;-75
2022/07/03 08:43:26;;;;;;;0.00;0.00;;;;;;;;;;5032371;28;20216;-72
2022/07/03 08:45:53;;;;;;;0.00;0.00;;;;;;;;;;5019969;28;20283;-73
2022/07/03 08:48:21;;;;;;;0.00;0.00;;;;;;;;;;5033353;28;20447;-74
2022/07/03 08:50:49;;;;;;;0.00;0.00;;;;;;;;;;5019378;28;20271;-72
2022/07/03 08:53:16;;;;;;;0.00;0.00;;;;;;;;;;5033353;28;20228;-73
2022/07/03 08:55:43;;;;;;;0.00;0.00;;;;;;;;;;5018704;28;20388;-75
2022/07/03 08:58:10;;;;;;;0.00;0.00;;;;;;;;;;5034138;28;20263;-73
2022/07/03 09:00:38;;;;;;;0.00;0.00;;;;;;;;;;5017517;28;20479;-73
2022/07/03 09:03:09;;;;;;;0.00;0.00;;;;;;;;;;5034699;28;20268;-73
2022/07/03 09:05:36;;;;;;;0.00;0.00;;;;;;;;;;5017621;28;20439;-73
2022/07/03 09:08:06;;;;;;;0.22;0.22;;;;;;;;;;5034823;28;20194;-73
2022/07/03 09:10:33;;;;;;;0.00;0.00;;;;;;;;;;5017224;28;20419;-73
2022/07/03 09:12:59;;;;;;;0.00;0.00;;;;;;;;;;5035447;28;20193;-73
2022/07/03 09:15:26;;;;;;;0.00;0.00;;;;;;;;;;5016079;28;20289;-71
2022/07/03 09:17:59;;;;;;;0.00;0.00;;;;;;;;;;5035697;28;20466;-71
2022/07/03 09:20:30;;;;;;;0.00;0.00;;;;;;;;;;5016185;28;20385;-73
2022/07/03 09:23:08;;;;;;;0.00;0.00;;;;;;;;;;5035689;28;20260;-74
2022/07/03 09:25:36;;;;;;;0.00;0.00;;;;;;;;;;5017178;28;20453;-73
2022/07/03 09:28:02;;;;;;;0.00;0.00;;;;;;;;;;5034734;28;20441;-73
2022/07/03 09:30:29;;;;;;;0.00;0.00;;;;;;;;;;5015933;28;20259;-73
2022/07/03 09:32:55;;;;;;;0.00;0.00;;;;;;;;;;5035919;28;20200;-74
2022/07/03 09:35:23;;;;;;;0.00;0.00;;;;;;;;;;5015133;28;20229;-73
2022/07/03 09:37:50;;;;;;;0.00;0.00;;;;;;;;;;5036115;28;20384;-72
2022/07/03 09:40:17;;;;;;;0.00;0.00;;;;;;;;;;5014628;28;20216;-73
2022/07/03 09:42:57;;;;;;;0.00;0.00;;;;;;;;;;5036950;28;20413;-72
2022/07/03 09:45:23;;;;;;;0.00;0.00;;;;;;;;;;5014888;28;20272;-73
2022/07/03 09:47:49;;;;;;;0.00;0.00;;;;;;;;;;5035871;28;20215;-72
2022/07/03 09:50:16;;;;;;;0.00;0.00;;;;;;;;;;5014041;28;20486;-73
2022/07/03 09:52:43;;;;;;;0.00;0.00;;;;;;;;;;5036906;28;20209;-72
2022/07/03 09:55:15;;;;;;;0.30;0.30;;;;;;;;;;5015288;28;20389;-73
2022/07/03 09:57:43;;;;;;;0.00;0.00;;;;;;;;;;5037438;28;20519;-74
2022/07/03 10:00:12;;;;;;;0.00;0.00;;;;;;;;;;5012893;28;20209;-74
2022/07/03 10:02:52;;;;;;;0.00;0.00;;;;;;;;;;5037095;28;20212;-72
2022/07/03 10:05:18;;;;;;;0.00;0.00;;;;;;;;;;5013925;28;20256;-73
2022/07/03 10:07:54;;;;;;;0.00;0.00;;;;;;;;;;5036402;28;20217;-73
2022/07/03 10:10:21;;;;;;;0.00;0.00;;;;;;;;;;5014310;28;20193;-73
2022/07/03 10:12:48;;;;;;;0.00;0.00;;;;;;;;;;5035614;28;20206;-73
2022/07/03 10:15:17;;;;;;;0.00;0.00;;;;;;;;;;5013438;28;20221;-73
2022/07/03 10:17:44;;;;;;;0.00;0.00;;;;;;;;;;5036386;28;20237;-74
2022/07/03 10:20:14;;;;;;;0.00;0.00;;;;;;;;;;5012912;28;20267;-72
2022/07/03 10:22:42;;;;;;;0.00;0.00;;;;;;;;;;5036737;28;20277;-74
2022/07/03 10:25:09;;;;;;;0.00;0.00;;;;;;;;;;5012426;28;20201;-73
2022/07/03 10:27:36;;;;;;;0.00;0.00;;;;;;;;;;5037348;28;20276;-74
2022/07/03 10:30:03;;;;;;;0.00;0.00;;;;;;;;;;5022292;28;20248;-73
2022/07/03 10:32:33;;;;;;;0.00;0.00;;;;;;;;;;5027578;28;20248;-73
2022/07/03 10:34:59;;;;;;;0.00;0.00;;;;;;;;;;5022474;28;20415;-73
2022/07/03 10:37:28;;;;;;;0.00;0.00;;;;;;;;;;5027276;28;20244;-73
2022/07/03 10:44:45;;;;;;;0.00;0.00;;;;;;;;;;5022291;28;20277;-73
2022/07/03 10:45:29;;;;;;;0.00;0.00;;;;;;;;;;5015383;28;20259;-74
2022/07/03 10:47:57;;;;;;;0.00;0.00;;;;;;;;;;5034366;28;20213;-73
2022/07/03 10:50:24;;;;;;;0.00;0.00;;;;;;;;;;5014255;28;20212;-74
2022/07/03 10:52:50;;;;;;;0.00;0.00;;;;;;;;;;5034666;28;20216;-73
2022/07/03 10:55:18;;;;;;;0.00;0.00;;;;;;;;;;5013594;28;20225;-74
2022/07/03 10:58:04;;;;;;;0.00;0.00;;;;;;;;;;5035816;28;20450;-73
2022/07/03 11:00:31;;;;;;;0.00;0.00;;;;;;;;;;5015205;28;20303;-72
2022/07/03 11:02:58;;;;;;;0.00;0.00;;;;;;;;;;5037796;28;20236;-74
2022/07/03 11:05:25;;;;;;;0.00;0.00;;;;;;;;;;5018367;28;20249;-74
2022/07/03 11:08:12;;;;;;;0.00;0.00;;;;;;;;;;5038656;28;20240;-75
2022/07/03 11:10:42;;;;;;;0.00;0.00;;;;;;;;;;5019780;28;20276;-73
2022/07/03 11:13:16;;;;;;;0.00;0.00;;;;;;;;;;5036199;28;20225;-73
2022/07/03 11:15:44;;;;;;;0.00;0.00;;;;;;;;;;5020195;28;20241;-73
2022/07/03 11:18:14;;;;;;;0.00;0.00;;;;;;;;;;5036104;28;20540;-74
2022/07/03 11:20:56;;;;;;;0.00;0.00;;;;;;;;;;5020213;28;20323;-73
2022/07/03 11:23:27;;;;;;;0.00;0.00;;;;;;;;;;5034535;28;20331;-73
2022/07/03 11:25:55;;;;;;;0.00;0.00;;;;;;;;;;5021826;28;20323;-74
2022/07/03 11:28:41;;;;;;;0.00;0.00;;;;;;;;;;5034555;28;20211;-73
2022/07/03 11:31:17;;;;;;;0.00;0.00;;;;;;;;;;5023567;28;20240;-75
2022/07/03 11:33:45;;;;;;;0.00;0.00;;;;;;;;;;5031856;28;20205;-69
2022/07/03 11:36:11;;;;;;;0.00;0.00;;;;;;;;;;5023555;28;20300;-74
2022/07/03 11:38:38;;;;;;;0.00;0.00;;;;;;;;;;5032286;28;20213;-74
2022/07/03 11:41:07;;;;;;;0.00;0.00;;;;;;;;;;5022630;28;20247;-74
2022/07/03 11:43:34;;;;;;;0.00;0.00;;;;;;;;;;5032293;28;20209;-73
2022/07/03 11:46:01;;;;;;;0.08;0.08;;;;;;;;;;5022181;28;20314;-74
2022/07/03 11:48:28;;;;;;;0.00;0.00;;;;;;;;;;5033390;28;20205;-74
2022/07/03 11:51:01;;;;;;;0.00;0.00;;;;;;;;;;5021292;28;20546;-74
2022/07/03 11:53:28;;;;;;;0.00;0.00;;;;;;;;;;5033225;28;20193;-74
2022/07/03 11:55:55;;;;;;;0.00;0.00;;;;;;;;;;5021205;28;20450;-74
2022/07/03 11:58:22;;;;;;;0.10;0.10;;;;;;;;;;5033598;28;20205;-73
2022/07/03 12:00:50;;;;;;;0.00;0.00;;;;;;;;;;5019958;28;20502;-72
2022/07/03 12:03:16;;;;;;;0.00;0.00;;;;;;;;;;5034462;28;20220;-74
2022/07/03 12:05:53;;;;;;;0.00;0.00;;;;;;;;;;5019045;28;20307;-75
2022/07/03 12:08:29;;;;;;;0.00;0.00;;;;;;;;;;5033952;28;20265;-74
2022/07/03 12:11:00;;;;;;;0.00;0.00;;;;;;;;;;5021013;28;20247;-74
2022/07/03 12:13:27;;;;;;;0.00;0.00;;;;;;;;;;5032737;28;20209;-74
2022/07/03 12:15:54;;;;;;;0.00;0.00;;;;;;;;;;5020193;28;20262;-74
2022/07/03 12:18:20;;;;;;;0.00;0.00;;;;;;;;;;5033543;28;20205;-74
2022/07/03 12:20:47;;;;;;;0.00;0.00;;;;;;;;;;5019424;28;20308;-74
2022/07/03 12:23:13;;;;;;;0.00;0.00;;;;;;;;;;5034561;28;20420;-74
2022/07/03 12:25:41;;;;;;;0.00;0.00;;;;;;;;;;5018707;28;20236;-73
2022/07/03 12:28:09;;;;;;;0.00;0.00;;;;;;;;;;5034773;28;20213;-74
2022/07/03 12:30:36;;;;;;;0.00;0.00;;;;;;;;;;5017939;28;20241;-74
2022/07/03 12:33:03;;;;;;;0.00;0.00;;;;;;;;;;5035621;28;20219;-73
2022/07/03 12:35:30;;;;;;;0.00;0.00;;;;;;;;;;5017079;28;20244;-74
2022/07/03 12:37:57;;;;;;;0.00;0.00;;;;;;;;;;5036111;28;20216;-74
2022/07/03 12:40:23;;;;;;;0.00;0.00;;;;;;;;;;5016108;28;20205;-75
2022/07/03 12:42:52;;;;;;;0.00;0.00;;;;;;;;;;5036949;28;20459;-72
2022/07/03 12:45:19;;;;;;;0.00;0.00;;;;;;;;;;5015442;28;20272;-74
2022/07/03 12:47:46;;;;;;;0.00;0.00;;;;;;;;;;5037201;28;20276;-73
2022/07/03 12:50:14;;;;;;;0.00;0.00;;;;;;;;;;5014845;28;20213;-75
2022/07/03 12:52:49;;;;;;;0.00;0.00;;;;;;;;;;5037950;28;20513;-74
2022/07/03 12:55:22;;;;;;;0.00;0.00;;;;;;;;;;5014838;28;20217;-73
2022/07/03 13:00:42;;;;;;;0.00;0.00;;;;;;;;;;5017069;28;20319;-74
2022/07/03 13:03:08;;;;;;;0.00;0.00;;;;;;;;;;5034195;28;20237;-74
2022/07/03 13:05:42;;;;;;;0.00;0.00;;;;;;;;;;5017091;28;20251;-73
2022/07/03 13:08:08;;;;;;;0.00;0.00;;;;;;;;;;5034150;28;20251;-74
2022/07/03 13:10:37;;;;;;;0.00;0.00;;;;;;;;;;5017293;28;20397;-74
2022/07/03 13:13:03;;;;;;;0.00;0.00;;;;;;;;;;5034503;28;20292;-74
2022/07/03 13:15:30;;;;;;;0.00;0.00;;;;;;;;;;5016556;28;20304;-74
2022/07/03 13:17:59;;;;;;;0.00;0.00;;;;;;;;;;5035011;28;20233;-74
2022/07/03 13:20:26;;;;;;;0.00;0.00;;;;;;;;;;5016019;28;20511;-74
2022/07/03 13:22:52;;;;;;;0.00;0.00;;;;;;;;;;5036085;28;20193;-74
2022/07/03 13:25:19;;;;;;;0.00;0.00;;;;;;;;;;5014854;28;20205;-74
2022/07/03 13:27:45;;;;;;;0.00;0.00;;;;;;;;;;5036900;28;20391;-74
2022/07/03 13:30:12;;;;;;;0.00;0.00;;;;;;;;;;5013912;28;20280;-74
2022/07/03 13:32:38;;;;;;;0.00;0.00;;;;;;;;;;5037464;28;20228;-74
2022/07/03 13:35:07;;;;;;;0.00;0.00;;;;;;;;;;5023693;28;20216;-73
2022/07/03 13:37:33;;;;;;;0.00;0.00;;;;;;;;;;5011605;28;20205;-75
2022/07/03 13:40:01;;;;;;;0.00;0.00;;;;;;;;;;5023489;28;20213;-74
2022/07/03 13:42:27;;;;;;;0.00;0.00;;;;;;;;;;5028205;28;20247;-74
2022/07/03 13:44:53;;;;;;;0.00;0.00;;;;;;;;;;5023464;28;20276;-73
2022/07/03 13:47:20;;;;;;;0.00;0.00;;;;;;;;;;5028278;28;20251;-74
2022/07/03 13:49:46;;;;;;;0.00;0.00;;;;;;;;;;5023293;28;20205;-73
2022/07/03 13:52:14;;;;;;;0.00;0.00;;;;;;;;;;5027888;28;20304;-74
2022/07/03 13:54:40;;;;;;;0.00;0.00;;;;;;;;;;5023156;28;20215;-74
2022/07/03 13:57:06;;;;;;;0.00;0.00;;;;;;;;;;5027879;28;20646;-73
2022/07/03 13:59:33;;;;;;;0.00;0.00;;;;;;;;;;5023182;28;20212;-74
2022/07/03 14:01:59;;;;;;;0.00;0.00;;;;;;;;;;5027151;28;20487;-74
2022/07/03 14:04:26;;;;;;;0.00;0.00;;;;;;;;;;5023682;28;20205;-73
2022/07/03 14:06:53;;;;;;;0.00;0.00;;;;;;;;;;5026026;28;20232;-74
2022/07/03 14:09:22;;;;;;;0.00;0.00;;;;;;;;;;5024383;28;20206;-74
2022/07/03 14:11:49;;;;;;;0.00;0.00;;;;;;;;;;5025546;28;20241;-74
2022/07/03 14:14:16;;;;;;;0.00;0.00;;;;;;;;;;5024742;28;20240;-73
2022/07/03 14:16:42;;;;;;;0.00;0.00;;;;;;;;;;5024262;28;20271;-73
2022/07/03 14:19:09;;;;;;;0.00;0.00;;;;;;;;;;5025540;28;20201;-73
2022/07/03 14:21:35;;;;;;;0.00;0.00;;;;;;;;;;5023641;28;20244;-75
2022/07/03 14:24:01;;;;;;;0.00;0.00;;;;;;;;;;5026597;28;20205;-73
2022/07/03 14:34:41;;;;;;;0.00;0.00;;;;;;;;;;5022944;28;20209;-74
2022/07/03 14:37:08;;;;;;;0.00;0.00;;;;;;;;;;5029630;28;20282;-74
2022/07/03 14:39:34;;;;;;;0.00;0.00;;;;;;;;;;5026617;28;20211;-74
2022/07/03 14:42:06;;;;;;;0.00;0.00;;;;;;;;;;5031118;28;20240;-74
2022/07/03 14:44:32;;;;;;;0.00;0.00;;;;;;;;;;5026787;28;20342;-75
2022/07/03 14:46:59;;;;;;;0.00;0.00;;;;;;;;;;5030605;28;20232;-74
2022/07/03 14:49:25;;;;;;;0.00;0.00;;;;;;;;;;5027111;28;20233;-73
2022/07/03 14:51:52;;;;;;;0.00;0.00;;;;;;;;;;5029562;28;20247;-73
2022/07/03 14:54:20;;;;;;;0.00;0.00;;;;;;;;;;5028040;28;20252;-74
2022/07/03 14:56:51;;;;;;;0.00;0.00;;;;;;;;;;5028618;28;20241;-74
2022/07/03 14:59:20;;;;;;;0.00;0.00;;;;;;;;;;5028631;28;20282;-74
2022/07/03 15:01:48;;;;;;;0.00;0.00;;;;;;;;;;5028549;28;20343;-74
2022/07/03 15:04:20;;;;;;;0.00;0.00;;;;;;;;;;5028188;28;20256;-74
2022/07/03 15:06:47;;;;;;;0.00;0.00;;;;;;;;;;5028881;28;20439;-74
2022/07/03 15:09:17;;;;;;;0.00;0.00;;;;;;;;;;5028274;28;20240;-74